Time;durP1;ratioP1;P1;durP2;ratioP2;P2;SDS_P1;SDS_P2;PMS_P1;PMS_P2;Temp;Humidity;BMP_temperature;BMP_pressure;BME280_temperature;BME280_humidity;BME280_pressure;Samples;Min_cycle;Max_cycle;Signal;HPM_P1;HPM_P2
2023/07/12 00:01:23;;;;;;;5.65;3.58;;;24.70;99.90;;;;;;5058691;28;20053;-71
2023/07/12 00:03:49;;;;;;;8.77;3.97;;;24.60;99.90;;;;;;5057843;28;20031;-71
2023/07/12 00:06:20;;;;;;;8.60;4.30;;;24.60;99.90;;;;;;5058649;28;20120;-71
2023/07/12 00:08:46;;;;;;;5.25;3.65;;;24.50;99.90;;;;;;5058797;28;20056;-70
2023/07/12 00:11:21;;;;;;;6.07;3.92;;;24.40;99.90;;;;;;5058150;28;20097;-70
2023/07/12 00:13:47;;;;;;;4.72;3.30;;;24.40;99.90;;;;;;5057890;28;20025;-69
2023/07/12 00:16:42;;;;;;;6.25;3.30;;;24.30;99.90;;;;;;5058358;28;20112;-69
2023/07/12 00:19:14;;;;;;;4.10;3.20;;;24.20;99.90;;;;;;5020533;28;20120;-68
2023/07/12 00:21:39;;;;;;;3.55;3.05;;;24.00;99.90;;;;;;5020426;28;20045;-68
2023/07/12 00:24:05;;;;;;;4.60;3.20;;;24.10;99.90;;;;;;5020582;28;20148;-68
2023/07/12 00:26:37;;;;;;;6.53;3.30;;;23.90;99.90;;;;;;5020032;28;20029;-68
2023/07/12 00:29:05;;;;;;;8.23;3.50;;;23.80;99.90;;;;;;5020069;28;20061;-69
2023/07/12 00:31:32;;;;;;;4.65;2.90;;;23.60;99.90;;;;;;5020196;28;20029;-70
2023/07/12 00:33:58;;;;;;;4.55;3.40;;;23.70;99.90;;;;;;5020164;28;20105;-70
2023/07/12 00:36:26;;;;;;;4.35;2.88;;;23.60;99.90;;;;;;5020627;28;20061;-70
2023/07/12 00:38:52;;;;;;;5.05;3.22;;;23.70;99.90;;;;;;5020083;28;20021;-70
2023/07/12 00:41:23;;;;;;;5.22;2.95;;;23.90;99.90;;;;;;5020120;28;20074;-70
2023/07/12 00:44:10;;;;;;;4.75;3.13;;;23.90;99.90;;;;;;5020524;28;20030;-70
2023/07/12 00:46:40;;;;;;;6.60;3.22;;;24.00;99.90;;;;;;5020470;28;20033;-70
2023/07/12 00:49:09;;;;;;;4.55;2.97;;;24.10;99.90;;;;;;5020052;28;20034;-69
2023/07/12 00:51:43;;;;;;;4.80;3.42;;;24.20;99.90;;;;;;5020228;28;20069;-69
2023/07/12 00:54:19;;;;;;;6.28;3.03;;;24.00;99.90;;;;;;5020572;28;20059;-68
2023/07/12 00:56:45;;;;;;;5.72;2.95;;;24.00;99.90;;;;;;5057603;28;20024;-68
2023/07/12 00:59:22;;;;;;;6.40;3.33;;;24.10;99.90;;;;;;5057539;28;20052;-68
2023/07/12 01:01:52;;;;;;;5.32;3.42;;;24.00;99.90;;;;;;5056980;28;20162;-68
2023/07/12 01:04:22;;;;;;;8.55;3.58;;;23.90;99.90;;;;;;5057675;28;20120;-68
2023/07/12 01:06:49;;;;;;;6.88;3.78;;;24.00;99.90;;;;;;5056696;28;20025;-68
2023/07/12 01:09:17;;;;;;;7.72;3.47;;;23.90;99.90;;;;;;5056958;28;20028;-68
2023/07/12 01:11:43;;;;;;;5.32;3.55;;;23.70;99.90;;;;;;5057512;28;20174;-68
2023/07/12 01:14:10;;;;;;;7.93;4.32;;;23.60;99.90;;;;;;5057207;28;20029;-68
2023/07/12 01:16:51;;;;;;;8.15;4.05;;;23.50;99.90;;;;;;5044162;28;20025;-68
2023/07/12 01:19:17;;;;;;;5.82;4.22;;;23.40;99.90;;;;;;5037148;28;20017;-70
2023/07/12 01:21:45;;;;;;;7.70;4.50;;;23.00;99.90;;;;;;5037069;28;20100;-70
2023/07/12 01:24:11;;;;;;;8.25;4.20;;;23.40;99.90;;;;;;5036747;28;20083;-70
2023/07/12 01:26:44;;;;;;;7.15;3.90;;;23.20;99.90;;;;;;5036792;28;20083;-70
2023/07/12 01:29:10;;;;;;;6.55;4.70;;;23.20;99.90;;;;;;5037196;28;20036;-70
2023/07/12 01:31:37;;;;;;;6.93;4.45;;;23.30;99.90;;;;;;5036249;28;20021;-70
2023/07/12 01:34:03;;;;;;;7.53;4.32;;;23.30;99.90;;;;;;5036514;28;20025;-70
2023/07/12 01:36:29;;;;;;;9.48;5.25;;;23.40;99.90;;;;;;5037131;28;20056;-71
2023/07/12 01:38:57;;;;;;;8.50;4.43;;;23.50;99.90;;;;;;5036344;28;20067;-68
2023/07/12 01:41:23;;;;;;;7.22;3.72;;;23.60;99.90;;;;;;5036481;28;20025;-68
2023/07/12 01:43:49;;;;;;;7.50;4.40;;;23.80;99.90;;;;;;5036802;28;20032;-68
2023/07/12 01:46:15;;;;;;;11.32;4.50;;;23.80;99.90;;;;;;5036450;28;20026;-68
2023/07/12 01:48:41;;;;;;;7.57;4.40;;;23.90;99.90;;;;;;5036587;28;20025;-68
2023/07/12 01:51:07;;;;;;;7.80;4.82;;;23.90;99.90;;;;;;5035762;28;20057;-68
2023/07/12 01:53:34;;;;;;;9.20;4.47;;;24.00;99.90;;;;;;5036054;28;20097;-68
2023/07/12 01:56:00;;;;;;;6.65;3.95;;;24.00;99.90;;;;;;5036370;28;20058;-68
2023/07/12 01:58:26;;;;;;;5.97;4.10;;;24.00;99.90;;;;;;5035950;28;20029;-68
2023/07/12 02:00:52;;;;;;;6.75;4.35;;;24.00;99.90;;;;;;5036299;28;20029;-68
2023/07/12 02:03:18;;;;;;;8.57;3.95;;;24.00;99.90;;;;;;5036180;28;20112;-68
2023/07/12 02:05:44;;;;;;;6.95;4.10;;;23.90;99.90;;;;;;5036188;28;20064;-70
2023/07/12 02:08:10;;;;;;;8.05;4.70;;;23.70;99.90;;;;;;5036339;28;20060;-71
2023/07/12 02:10:36;;;;;;;4.80;3.80;;;23.70;99.90;;;;;;5035736;28;20028;-71
2023/07/12 02:13:02;;;;;;;6.32;3.72;;;23.60;99.90;;;;;;5036202;28;20030;-71
2023/07/12 02:15:28;;;;;;;8.02;3.90;;;23.70;99.90;;;;;;5036168;28;20021;-71
2023/07/12 02:17:54;;;;;;;6.65;3.67;;;23.70;99.90;;;;;;5036158;28;20021;-71
2023/07/12 02:20:20;;;;;;;9.57;4.15;;;23.70;99.90;;;;;;5045760;28;20108;-71
2023/07/12 02:22:47;;;;;;;6.82;3.53;;;23.70;99.90;;;;;;5055788;28;20025;-70
2023/07/12 02:25:14;;;;;;;8.52;4.30;;;23.80;99.90;;;;;;5055750;28;20025;-71
2023/07/12 02:27:40;;;;;;;5.60;3.97;;;23.90;99.90;;;;;;5055957;28;20024;-71
2023/07/12 02:30:11;;;;;;;6.72;4.07;;;23.80;99.90;;;;;;5055464;28;20029;-71
2023/07/12 02:32:37;;;;;;;4.75;3.63;;;23.80;99.90;;;;;;5055683;28;20032;-71
2023/07/12 02:35:03;;;;;;;4.28;3.70;;;23.90;99.90;;;;;;5055809;28;20033;-71
2023/07/12 02:37:28;;;;;;;8.35;3.78;;;23.90;99.90;;;;;;5055602;28;20055;-71
2023/07/12 02:39:54;;;;;;;9.23;4.05;;;24.00;99.90;;;;;;5055464;28;20026;-71
2023/07/12 02:42:20;;;;;;;6.40;3.70;;;24.00;99.90;;;;;;5055905;28;20025;-71
2023/07/12 02:44:46;;;;;;;7.03;3.72;;;24.10;99.90;;;;;;5055478;28;20036;-71
2023/07/12 02:47:11;;;;;;;6.50;3.35;;;24.10;99.90;;;;;;5055656;28;20033;-71
2023/07/12 02:49:38;;;;;;;10.57;3.50;;;24.10;99.90;;;;;;5056022;28;20036;-71
2023/07/12 02:52:05;;;;;;;9.93;3.97;;;24.10;99.90;;;;;;5059911;28;20025;-71
2023/07/12 02:54:31;;;;;;;7.03;3.90;;;23.90;99.90;;;;;;5059453;28;20031;-71
2023/07/12 02:56:58;;;;;;;9.65;3.47;;;24.00;99.90;;;;;;5059689;28;20025;-71
2023/07/12 02:59:24;;;;;;;6.43;3.95;;;24.00;99.90;;;;;;5059258;28;20051;-71
2023/07/12 03:01:50;;;;;;;6.32;3.85;;;24.00;99.90;;;;;;5059734;28;20033;-71
2023/07/12 03:04:16;;;;;;;6.47;3.72;;;23.90;99.90;;;;;;5059502;28;20095;-71
2023/07/12 03:06:42;;;;;;;5.75;4.13;;;23.90;99.90;;;;;;5059303;28;20031;-71
2023/07/12 03:09:08;;;;;;;8.00;3.70;;;23.90;99.90;;;;;;5058954;28;20024;-71
2023/07/12 03:11:33;;;;;;;7.25;4.32;;;23.90;99.90;;;;;;5059074;28;20022;-71
2023/07/12 03:13:59;;;;;;;6.85;3.42;;;23.80;99.90;;;;;;5058756;28;20025;-71
2023/07/12 03:16:24;;;;;;;5.65;3.30;;;23.90;99.90;;;;;;5058812;28;20017;-69
2023/07/12 03:18:52;;;;;;;6.45;3.83;;;23.90;99.90;;;;;;5058692;28;20035;-68
2023/07/12 03:21:18;;;;;;;8.43;4.22;;;23.70;99.90;;;;;;5059962;28;20029;-70
2023/07/12 03:23:43;;;;;;;6.90;3.90;;;23.80;99.90;;;;;;5058693;28;20046;-70
2023/07/12 03:26:09;;;;;;;7.47;3.88;;;23.70;99.90;;;;;;5058825;28;20025;-70
2023/07/12 03:28:35;;;;;;;8.55;3.78;;;23.60;99.90;;;;;;5058422;28;20025;-70
2023/07/12 03:31:01;;;;;;;8.27;4.40;;;23.60;99.90;;;;;;5059155;28;20035;-70
2023/07/12 03:33:28;;;;;;;8.63;3.88;;;23.50;99.90;;;;;;5058956;28;20029;-70
2023/07/12 03:35:53;;;;;;;8.40;4.30;;;23.40;99.90;;;;;;5058626;28;20057;-70
2023/07/12 03:38:20;;;;;;;8.50;4.78;;;23.20;99.90;;;;;;5058604;28;20049;-70
2023/07/12 03:40:47;;;;;;;8.80;4.28;;;23.10;99.90;;;;;;5058479;28;20021;-70
2023/07/12 03:43:12;;;;;;;7.25;3.97;;;23.00;99.90;;;;;;5058621;28;20029;-70
2023/07/12 03:45:38;;;;;;;9.43;4.15;;;23.00;99.90;;;;;;5058268;28;20021;-70
2023/07/12 03:48:04;;;;;;;7.10;3.75;;;23.10;99.90;;;;;;5058112;28;20117;-70
2023/07/12 03:50:29;;;;;;;6.10;4.30;;;23.10;99.90;;;;;;5058461;28;20040;-70
2023/07/12 03:52:55;;;;;;;6.47;4.22;;;23.10;99.90;;;;;;5058116;28;20052;-70
2023/07/12 03:55:21;;;;;;;7.88;4.32;;;23.10;99.90;;;;;;5058432;28;20124;-70
2023/07/12 03:57:46;;;;;;;7.95;4.38;;;23.10;99.90;;;;;;5057910;28;20059;-70
2023/07/12 04:00:15;;;;;;;5.78;3.85;;;22.90;99.90;;;;;;5057743;28;20063;-70
2023/07/12 04:02:41;;;;;;;7.20;4.40;;;22.90;99.90;;;;;;5059100;28;20035;-70
2023/07/12 04:05:06;;;;;;;7.63;4.50;;;22.90;99.90;;;;;;5058590;28;20067;-71
2023/07/12 04:07:32;;;;;;;8.75;4.57;;;22.90;99.90;;;;;;5058633;28;20044;-71
2023/07/12 04:09:58;;;;;;;5.50;3.95;;;23.00;99.90;;;;;;5058151;28;20024;-71
2023/07/12 04:12:23;;;;;;;10.23;4.32;;;23.00;99.90;;;;;;5058810;28;20119;-71
2023/07/12 04:14:49;;;;;;;6.85;4.45;;;23.00;99.90;;;;;;5058418;28;20021;-71
2023/07/12 04:17:15;;;;;;;8.90;4.47;;;23.00;99.90;;;;;;5058763;28;20017;-71
2023/07/12 04:19:41;;;;;;;9.23;4.57;;;23.00;99.90;;;;;;5057899;28;20031;-71
2023/07/12 04:22:07;;;;;;;11.00;4.63;;;23.10;99.90;;;;;;5057604;28;20029;-71
2023/07/12 04:24:38;;;;;;;10.85;5.22;;;23.10;99.90;;;;;;5057552;28;20044;-71
2023/07/12 04:27:04;;;;;;;8.02;4.97;;;23.20;99.90;;;;;;5057942;28;20063;-71
2023/07/12 04:29:30;;;;;;;7.97;4.80;;;23.40;99.90;;;;;;5057777;28;20021;-71
2023/07/12 04:31:55;;;;;;;9.95;5.43;;;23.70;99.90;;;;;;5057955;28;20025;-71
2023/07/12 04:34:21;;;;;;;6.25;4.60;;;23.80;99.90;;;;;;5058355;28;20025;-72
2023/07/12 04:36:46;;;;;;;6.82;4.68;;;23.70;99.90;;;;;;5057297;28;20017;-72
2023/07/12 04:39:12;;;;;;;8.40;5.05;;;23.80;99.90;;;;;;5057799;28;20036;-72
2023/07/12 04:41:38;;;;;;;8.95;4.90;;;23.60;99.90;;;;;;5057437;28;20029;-73
2023/07/12 04:44:03;;;;;;;8.75;5.00;;;23.50;99.90;;;;;;5057351;28;20048;-73
2023/07/12 04:46:29;;;;;;;14.55;6.20;;;23.50;99.90;;;;;;5057334;28;20040;-73
2023/07/12 04:48:54;;;;;;;9.93;5.93;;;23.40;99.90;;;;;;5057653;28;20024;-73
2023/07/12 04:51:20;;;;;;;8.68;6.60;;;23.20;99.90;;;;;;5057151;28;20029;-73
2023/07/12 04:53:48;;;;;;;10.30;6.07;;;22.80;99.90;;;;;;5058051;28;20029;-73
2023/07/12 04:56:15;;;;;;;10.85;7.35;;;22.50;99.90;;;;;;5058029;28;20017;-73
2023/07/12 04:58:40;;;;;;;10.50;7.75;;;22.40;99.90;;;;;;5057174;28;20079;-73
2023/07/12 05:01:06;;;;;;;9.77;6.78;;;22.40;99.90;;;;;;5057566;28;20032;-73
2023/07/12 05:03:32;;;;;;;7.10;4.18;;;22.60;99.90;;;;;;5056774;28;20029;-73
2023/07/12 05:05:58;;;;;;;6.18;3.75;;;22.50;99.90;;;;;;5057029;28;20049;-73
2023/07/12 05:08:24;;;;;;;5.43;3.40;;;22.30;99.90;;;;;;5056853;28;20021;-73
2023/07/12 05:10:49;;;;;;;4.43;2.95;;;22.40;99.90;;;;;;5056551;28;20024;-73
2023/07/12 05:13:15;;;;;;;4.93;3.65;;;22.40;99.90;;;;;;5055997;28;20021;-74
2023/07/12 05:15:41;;;;;;;6.15;2.83;;;22.40;99.90;;;;;;5057022;28;20017;-74
2023/07/12 05:18:07;;;;;;;2.90;2.50;;;22.40;99.90;;;;;;5057329;28;20040;-74
2023/07/12 05:20:32;;;;;;;3.05;2.40;;;22.40;99.90;;;;;;5057116;28;20021;-73
2023/07/12 05:22:58;;;;;;;3.53;2.33;;;22.40;99.90;;;;;;5056457;28;20166;-73
2023/07/12 05:25:23;;;;;;;3.38;1.90;;;22.40;99.90;;;;;;5057068;28;20032;-73
2023/07/12 05:27:49;;;;;;;5.05;2.13;;;22.40;99.90;;;;;;5056688;28;20025;-74
2023/07/12 05:30:15;;;;;;;2.85;2.13;;;22.40;99.90;;;;;;5056229;28;20029;-73
2023/07/12 05:32:40;;;;;;;3.63;2.30;;;22.40;99.90;;;;;;5056585;28;20021;-73
2023/07/12 05:35:07;;;;;;;3.45;2.63;;;22.40;99.90;;;;;;5056510;28;20021;-74
2023/07/12 05:37:33;;;;;;;6.53;2.42;;;22.30;99.90;;;;;;5056452;28;20111;-74
2023/07/12 05:39:58;;;;;;;3.65;1.98;;;22.30;99.90;;;;;;5056543;28;20049;-74
2023/07/12 05:42:24;;;;;;;7.70;1.90;;;22.30;99.90;;;;;;5056098;28;20044;-74
2023/07/12 05:44:49;;;;;;;3.70;1.88;;;22.30;99.90;;;;;;5056475;28;20029;-73
2023/07/12 05:47:15;;;;;;;4.75;1.75;;;22.20;99.90;;;;;;5057121;28;20052;-74
2023/07/12 05:49:41;;;;;;;2.45;1.80;;;22.30;99.90;;;;;;5056825;28;20033;-73
2023/07/12 05:52:07;;;;;;;3.45;1.65;;;22.30;99.90;;;;;;5056676;28;20116;-73
2023/07/12 05:54:32;;;;;;;2.72;1.75;;;22.40;99.90;;;;;;5056365;28;20021;-74
2023/07/12 05:56:58;;;;;;;2.65;1.63;;;22.40;99.90;;;;;;5056306;28;20024;-74
2023/07/12 05:59:23;;;;;;;4.25;1.98;;;22.40;99.90;;;;;;5056364;28;20025;-74
2023/07/12 06:01:49;;;;;;;3.58;1.70;;;22.30;99.90;;;;;;5055930;28;20029;-73
2023/07/12 06:04:15;;;;;;;4.57;1.90;;;22.30;99.90;;;;;;5056225;28;20017;-73
2023/07/12 06:06:40;;;;;;;2.25;1.90;;;22.30;99.90;;;;;;5056028;28;20025;-73
2023/07/12 06:09:06;;;;;;;3.45;1.70;;;22.40;99.90;;;;;;5055846;28;20025;-73
2023/07/12 06:11:32;;;;;;;2.13;1.60;;;22.30;99.90;;;;;;5056610;28;20052;-73
2023/07/12 06:13:57;;;;;;;4.07;2.30;;;22.40;99.90;;;;;;5056154;28;20044;-73
2023/07/12 06:16:23;;;;;;;5.03;1.90;;;22.60;99.90;;;;;;5056068;28;20021;-72
2023/07/12 06:18:48;;;;;;;6.57;1.90;;;22.70;99.90;;;;;;5056901;28;20025;-72
2023/07/12 06:21:14;;;;;;;3.45;1.98;;;22.70;99.90;;;;;;5055971;28;20029;-72
2023/07/12 06:23:39;;;;;;;3.60;1.90;;;22.70;99.90;;;;;;5057778;28;20021;-72
2023/07/12 06:26:05;;;;;;;1.95;1.70;;;22.70;99.90;;;;;;5060090;28;20035;-72
2023/07/12 06:28:31;;;;;;;2.42;1.88;;;22.70;99.90;;;;;;5059713;28;20027;-72
2023/07/12 06:30:57;;;;;;;3.78;1.80;;;22.70;99.90;;;;;;5059473;28;20021;-72
2023/07/12 06:33:22;;;;;;;3.22;1.50;;;22.70;99.90;;;;;;5060428;28;20031;-72
2023/07/12 06:35:48;;;;;;;8.52;1.55;;;22.70;99.90;;;;;;5060489;28;20020;-72
2023/07/12 06:38:14;;;;;;;2.70;1.55;;;22.80;99.90;;;;;;5059534;28;20087;-72
2023/07/12 06:40:39;;;;;;;2.90;1.40;;;22.80;99.90;;;;;;5059514;28;20028;-72
2023/07/12 06:43:05;;;;;;;4.80;1.38;;;22.80;99.90;;;;;;5060573;28;20047;-72
2023/07/12 06:45:30;;;;;;;2.85;1.65;;;22.80;99.90;;;;;;5060279;28;20028;-72
2023/07/12 06:47:56;;;;;;;3.90;1.50;;;22.90;99.90;;;;;;5059873;28;20051;-72
2023/07/12 06:50:22;;;;;;;3.80;1.30;;;23.00;99.90;;;;;;5059505;28;20040;-71
2023/07/12 06:52:47;;;;;;;2.20;1.38;;;23.10;99.90;;;;;;5059540;28;20032;-72
2023/07/12 06:55:13;;;;;;;1.40;1.10;;;23.20;99.90;;;;;;5059162;28;20060;-72
2023/07/12 06:57:39;;;;;;;1.58;1.10;;;23.20;99.90;;;;;;5059534;28;20024;-72
2023/07/12 07:00:08;;;;;;;1.85;1.30;;;23.20;99.90;;;;;;5059210;28;20013;-72
2023/07/12 07:02:34;;;;;;;4.60;1.25;;;23.40;99.90;;;;;;5058933;28;20109;-72
2023/07/12 07:04:59;;;;;;;1.65;0.80;;;23.30;99.90;;;;;;5059885;28;20024;-73
2023/07/12 07:07:25;;;;;;;3.13;0.93;;;23.30;99.90;;;;;;5059342;28;20024;-73
2023/07/12 07:09:50;;;;;;;2.47;1.08;;;23.40;99.90;;;;;;5059846;28;20032;-72
2023/07/12 07:12:16;;;;;;;1.73;0.88;;;23.60;99.90;;;;;;5059681;28;20059;-72
2023/07/12 07:14:42;;;;;;;1.02;0.75;;;23.60;99.90;;;;;;5059453;28;20074;-72
2023/07/12 07:17:08;;;;;;;1.38;0.80;;;23.70;99.90;;;;;;5059702;28;20021;-72
2023/07/12 07:19:34;;;;;;;1.02;0.73;;;23.70;99.90;;;;;;5058949;28;20059;-72
2023/07/12 07:21:59;;;;;;;2.45;1.00;;;23.60;99.90;;;;;;5073502;28;20020;-72
2023/07/12 07:25:04;;;;;;;1.30;0.65;;;23.60;99.90;;;;;;5079342;28;20017;-73
2023/07/12 07:27:30;;;;;;;1.13;0.60;;;23.60;99.90;;;;;;5077476;28;20029;-71
2023/07/12 07:29:56;;;;;;;1.23;0.70;;;23.70;99.90;;;;;;5078871;28;20055;-71
2023/07/12 07:32:21;;;;;;;5.78;0.70;;;23.80;99.90;;;;;;5079135;28;20066;-71
2023/07/12 07:34:47;;;;;;;1.58;0.60;;;23.80;99.90;;;;;;5066984;28;20025;-70
2023/07/12 07:37:13;;;;;;;2.75;0.80;;;23.70;99.90;;;;;;5063678;28;20017;-70
2023/07/12 07:39:38;;;;;;;3.50;0.68;;;23.60;99.90;;;;;;5064977;28;20083;-71
2023/07/12 07:42:04;;;;;;;0.95;0.65;;;23.60;99.90;;;;;;5056536;28;20029;-71
2023/07/12 07:44:47;;;;;;;0.63;0.50;;;23.80;99.90;;;;;;5075323;28;20055;-71
2023/07/12 07:47:12;;;;;;;1.33;0.75;;;23.90;99.90;;;;;;5058702;28;20112;-69
2023/07/12 07:49:38;;;;;;;1.48;0.52;;;23.90;99.90;;;;;;5058397;28;20056;-69
2023/07/12 07:52:14;;;;;;;4.25;0.80;;;23.90;99.90;;;;;;5059601;28;20025;-69
2023/07/12 07:54:39;;;;;;;0.82;0.50;;;23.80;99.90;;;;;;5048280;28;20033;-68
2023/07/12 07:57:07;;;;;;;1.05;0.70;;;23.80;99.90;;;;;;5038264;28;20022;-68
2023/07/12 07:59:32;;;;;;;1.45;0.60;;;23.90;99.90;;;;;;5054688;28;20021;-69
2023/07/12 08:01:58;;;;;;;4.80;0.60;;;23.90;99.90;;;;;;5037774;28;20029;-69
2023/07/12 08:04:24;;;;;;;0.45;0.40;;;23.90;99.90;;;;;;5040420;28;20107;-68
2023/07/12 08:06:50;;;;;;;0.85;0.57;;;24.00;99.90;;;;;;5038319;28;20048;-68
2023/07/12 08:09:16;;;;;;;1.00;0.55;;;24.10;99.90;;;;;;5038567;28;20029;-69
2023/07/12 08:11:42;;;;;;;2.15;0.57;;;24.10;99.90;;;;;;5038689;28;20021;-69
2023/07/12 08:14:08;;;;;;;3.03;0.60;;;24.20;99.90;;;;;;5038893;28;20021;-69
2023/07/12 08:16:35;;;;;;;1.92;0.70;;;24.40;99.90;;;;;;5037845;28;20109;-69
2023/07/12 08:19:02;;;;;;;0.55;0.55;;;24.40;99.90;;;;;;5037630;28;20025;-69
2023/07/12 08:21:28;;;;;;;2.53;0.75;;;24.40;99.90;;;;;;5037683;28;20104;-68
2023/07/12 08:23:54;;;;;;;1.42;0.80;;;24.50;99.90;;;;;;5038004;28;20120;-69
2023/07/12 08:26:20;;;;;;;2.10;0.50;;;24.60;99.90;;;;;;5037837;28;20033;-69
2023/07/12 08:28:47;;;;;;;1.67;0.68;;;24.70;99.90;;;;;;5037469;28;20109;-68
2023/07/12 08:31:22;;;;;;;2.10;0.80;;;24.70;99.90;;;;;;5044710;28;20025;-69
2023/07/12 08:33:49;;;;;;;1.05;0.82;;;24.70;99.90;;;;;;5037965;28;20025;-68
2023/07/12 08:36:15;;;;;;;0.73;0.57;;;24.60;99.90;;;;;;5037828;28;20048;-69
2023/07/12 08:39:30;;;;;;;0.47;0.40;;;24.60;99.90;;;;;;5037564;28;20025;-69
2023/07/12 08:41:57;;;;;;;0.60;0.40;;;24.60;99.90;;;;;;5054806;28;20057;-68
2023/07/12 08:44:23;;;;;;;1.20;0.73;;;24.60;99.90;;;;;;5037479;28;20046;-69
2023/07/12 08:46:59;;;;;;;2.83;0.55;;;24.70;99.90;;;;;;5037273;28;20025;-69
2023/07/12 08:49:27;;;;;;;2.47;0.50;;;24.80;99.90;;;;;;5037385;28;20029;-68
2023/07/12 08:55:02;;;;;;;4.05;0.80;;;24.90;99.90;;;;;;5038685;28;20063;-68
2023/07/12 08:57:29;;;;;;;1.15;0.60;;;24.80;99.90;;;;;;5037045;28;20022;-68
2023/07/12 09:00:05;;;;;;;1.30;0.98;;;25.00;99.90;;;;;;5037241;28;20087;-68
2023/07/12 09:02:31;;;;;;;1.52;0.70;;;25.20;99.90;;;;;;5054275;28;20108;-68
2023/07/12 09:05:09;;;;;;;2.38;0.98;;;25.30;99.90;;;;;;5043466;28;20025;-68
2023/07/12 09:07:37;;;;;;;1.45;0.85;;;25.30;99.90;;;;;;5051413;28;20064;-68
2023/07/12 09:10:08;;;;;;;1.50;1.05;;;25.50;99.90;;;;;;5057097;28;20127;-68
2023/07/12 09:12:35;;;;;;;0.73;0.60;;;25.60;99.90;;;;;;5057447;28;20075;-69
2023/07/12 09:15:16;;;;;;;0.73;0.73;;;25.70;99.90;;;;;;5057367;28;20070;-69
2023/07/12 09:17:44;;;;;;;2.05;0.80;;;25.70;99.90;;;;;;5056587;28;20116;-68
2023/07/12 09:20:28;;;;;;;2.45;0.70;;;25.70;99.90;;;;;;5056873;28;20098;-69
2023/07/12 09:22:55;;;;;;;2.85;1.05;;;25.90;99.90;;;;;;5070923;22;20140;-70
2023/07/12 09:25:24;;;;;;;1.23;0.80;;;26.00;99.90;;;;;;5018086;28;20018;-69
2023/07/12 09:27:51;;;;;;;0.75;0.70;;;26.10;99.90;;;;;;5017286;28;20049;-69
2023/07/12 09:30:22;;;;;;;2.13;0.50;;;26.20;99.90;;;;;;5017236;28;20022;-69
2023/07/12 09:32:49;;;;;;;;;;;26.20;99.90;;;;;;5016957;28;20037;-69
2023/07/12 09:35:29;;;;;;;1.08;0.70;;;26.10;99.90;;;;;;5016785;28;19909;-68
2023/07/12 09:38:05;;;;;;;1.50;0.90;;;26.10;99.90;;;;;;5016959;28;20132;-70
2023/07/12 09:40:40;;;;;;;1.27;0.50;;;26.10;99.90;;;;;;5017242;28;20018;-69
2023/07/12 09:43:24;;;;;;;2.10;1.63;;;26.10;99.90;;;;;;5016655;28;20129;-69
2023/07/12 09:46:03;;;;;;;2.08;0.98;;;26.10;99.90;;;;;;5017966;28;20018;-70
2023/07/12 09:48:38;;;;;;;1.35;1.00;;;26.20;99.90;;;;;;5017360;28;20037;-70
2023/07/12 09:51:26;;;;;;;1.50;1.30;;;26.20;99.90;;;;;;5017267;28;20022;-69
2023/07/12 09:53:55;;;;;;;1.70;1.15;;;26.20;99.90;;;;;;5016368;28;20026;-69
2023/07/12 09:56:47;;;;;;;1.75;1.17;;;26.30;99.90;;;;;;5017280;28;20022;-69
2023/07/12 09:59:33;;;;;;;0.95;0.75;;;26.20;99.90;;;;;;5016891;28;20109;-69
2023/07/12 10:02:13;;;;;;;1.40;1.10;;;26.00;99.90;;;;;;5016608;28;20022;-69
2023/07/12 10:04:46;;;;;;;2.42;1.10;;;26.00;99.90;;;;;;5016418;28;20030;-70
2023/07/12 10:07:22;;;;;;;3.25;1.20;;;26.20;99.90;;;;;;5016892;28;20034;-70
2023/07/12 10:09:51;;;;;;;1.75;1.02;;;26.30;99.90;;;;;;5017143;28;20026;-69
2023/07/12 10:12:35;;;;;;;1.40;1.23;;;26.40;99.90;;;;;;5016321;28;20033;-70
2023/07/12 10:15:02;;;;;;;2.08;1.30;;;26.40;99.90;;;;;;5016786;28;20049;-69
2023/07/12 10:17:37;;;;;;;0.88;0.80;;;26.30;99.90;;;;;;5016660;28;20065;-70
2023/07/12 10:20:05;;;;;;;2.83;1.67;;;26.20;99.90;;;;;;5016268;28;20072;-69
2023/07/12 10:22:40;;;;;;;2.47;1.30;;;26.20;99.90;;;;;;5015920;28;20026;-69
2023/07/12 10:25:18;;;;;;;4.00;1.05;;;26.30;99.90;;;;;;5017047;28;20022;-69
2023/07/12 10:27:51;;;;;;;3.17;1.77;;;26.20;99.90;;;;;;5017326;28;20030;-69
2023/07/12 10:30:26;;;;;;;3.92;1.40;;;26.20;99.90;;;;;;5016913;28;20081;-69
2023/07/12 10:33:16;;;;;;;1.45;1.00;;;26.40;99.90;;;;;;5015664;28;20196;-70
2023/07/12 10:35:51;;;;;;;2.70;0.80;;;26.70;99.90;;;;;;5017011;28;20025;-69
2023/07/12 10:38:18;;;;;;;1.27;1.10;;;27.00;99.90;;;;;;5016039;28;20090;-69
2023/07/12 10:40:53;;;;;;;2.83;1.10;;;27.30;99.90;;;;;;5016789;28;20105;-69
2023/07/12 10:43:33;;;;;;;2.17;0.90;;;27.60;99.90;;;;;;5016807;28;20029;-69
2023/07/12 10:46:13;;;;;;;1.73;1.17;;;27.90;99.90;;;;;;5015973;28;20029;-69
2023/07/12 10:48:49;;;;;;;4.10;1.55;;;28.40;99.90;;;;;;5017213;28;20108;-69
2023/07/12 10:51:33;;;;;;;2.50;1.10;;;28.80;99.90;;;;;;5016714;28;20026;-69
2023/07/12 10:53:59;;;;;;;1.77;1.40;;;28.60;99.90;;;;;;5016633;28;20029;-72
2023/07/12 10:56:49;;;;;;;2.90;1.20;;;28.30;99.90;;;;;;5015819;28;20025;-71
2023/07/12 10:59:30;;;;;;;5.38;1.00;;;28.30;99.90;;;;;;5015932;28;20018;-71
2023/07/12 11:02:09;;;;;;;;;;;28.60;99.90;;;;;;5016235;28;20033;-71
2023/07/12 11:04:45;;;;;;;0.75;0.73;;;28.60;99.90;;;;;;5015779;28;19909;-72
2023/07/12 11:07:11;;;;;;;1.90;1.00;;;29.20;99.90;;;;;;5016938;28;20037;-72
2023/07/12 11:09:42;;;;;;;2.15;1.05;;;29.60;99.90;;;;;;5016758;28;20034;-72
2023/07/12 11:12:09;;;;;;;1.77;1.08;;;30.20;99.90;;;;;;5018509;28;20033;-72
2023/07/12 11:14:37;;;;;;;4.47;3.10;;;30.20;99.90;;;;;;5019322;28;20113;-72
2023/07/12 11:17:06;;;;;;;4.32;1.80;;;30.40;99.90;;;;;;5019925;28;20081;-72
2023/07/12 11:19:44;;;;;;;3.88;0.90;;;30.50;99.90;;;;;;5010702;28;20026;-72
2023/07/12 11:22:23;;;;;;;2.97;1.40;;;30.80;99.30;;;;;;5013077;28;20026;-72
2023/07/12 11:24:59;;;;;;;1.73;1.00;;;30.50;99.60;;;;;;5017023;28;20096;-72
2023/07/12 11:27:41;;;;;;;3.00;1.23;;;29.90;99.90;;;;;;5000462;28;20033;-72
2023/07/12 11:30:36;;;;;;;1.88;1.20;;;29.70;99.90;;;;;;5000017;28;20053;-72
2023/07/12 11:33:26;;;;;;;1.73;1.00;;;29.70;99.90;;;;;;4998935;28;20027;-72
2023/07/12 11:36:01;;;;;;;3.83;1.10;;;29.40;99.90;;;;;;4999609;28;20050;-72
2023/07/12 11:38:30;;;;;;;2.35;1.20;;;29.60;99.90;;;;;;4999300;28;20022;-72
2023/07/12 11:41:01;;;;;;;2.35;1.17;;;29.90;99.90;;;;;;5015813;28;20125;-72
2023/07/12 11:43:32;;;;;;;1.90;1.20;;;30.90;98.60;;;;;;5015528;28;20030;-72
2023/07/12 11:45:59;;;;;;;2.40;1.23;;;31.30;96.80;;;;;;5015852;28;20128;-72
2023/07/12 11:48:30;;;;;;;2.47;1.30;;;31.10;98.00;;;;;;5015643;28;20054;-72
2023/07/12 11:50:56;;;;;;;;;;;30.80;96.50;;;;;;5015934;28;20022;-72
2023/07/12 11:53:23;;;;;;;2.25;1.20;;;31.30;95.60;;;;;;5015890;28;19941;-72
2023/07/12 11:55:49;;;;;;;2.45;1.33;;;31.60;93.70;;;;;;5000034;28;20037;-72
2023/07/12 11:58:20;;;;;;;1.65;1.25;;;31.40;93.90;;;;;;4999717;28;20033;-72
2023/07/12 12:00:46;;;;;;;;;;;31.70;93.00;;;;;;5000273;28;20030;-72
2023/07/12 12:03:14;;;;;;;2.67;1.00;;;32.00;91.60;;;;;;5014856;28;19928;-72
2023/07/12 12:05:40;;;;;;;1.20;1.10;;;31.80;89.90;;;;;;5015122;28;20061;-72
2023/07/12 12:08:10;;;;;;;2.78;1.80;;;31.60;89.70;;;;;;5014932;28;20026;-72
2023/07/12 12:10:38;;;;;;;2.75;1.60;;;31.40;89.90;;;;;;5014844;28;20030;-72
2023/07/12 12:13:24;;;;;;;4.15;2.03;;;31.30;88.50;;;;;;5014839;28;20054;-72
2023/07/12 12:15:57;;;;;;;2.45;1.30;;;31.40;88.30;;;;;;4999360;28;20026;-72
2023/07/12 12:18:22;;;;;;;2.55;1.02;;;31.30;87.10;;;;;;5006866;28;20029;-72
2023/07/12 12:21:05;;;;;;;1.15;1.05;;;30.60;88.10;;;;;;5017568;28;20018;-72
2023/07/12 12:23:37;;;;;;;1.20;1.08;;;30.80;88.70;;;;;;5018064;28;20034;-72
2023/07/12 12:26:31;;;;;;;2.05;1.02;;;31.00;88.20;;;;;;5018994;28;20072;-72
2023/07/12 12:29:17;;;;;;;1.40;1.05;;;31.30;86.50;;;;;;5017824;28;20033;-72
2023/07/12 12:31:51;;;;;;;2.90;1.25;;;31.60;84.20;;;;;;5017632;28;20041;-72
2023/07/12 12:34:17;;;;;;;2.88;2.17;;;31.60;83.60;;;;;;5018624;28;20022;-72
2023/07/12 12:37:08;;;;;;;3.60;1.92;;;31.60;83.20;;;;;;5017808;28;20026;-72
2023/07/12 12:39:35;;;;;;;2.67;2.38;;;31.50;84.00;;;;;;5017935;28;20022;-72
2023/07/12 12:42:21;;;;;;;2.92;1.83;;;31.30;82.50;;;;;;5017783;28;20117;-73
2023/07/12 12:44:47;;;;;;;1.90;1.20;;;30.90;84.40;;;;;;5017703;28;20045;-73
2023/07/12 12:47:15;;;;;;;4.63;1.05;;;30.70;85.80;;;;;;5013963;28;20208;-72
2023/07/12 12:49:42;;;;;;;1.25;0.73;;;30.60;86.40;;;;;;4998831;28;20027;-72
2023/07/12 12:52:27;;;;;;;1.77;0.93;;;30.60;87.00;;;;;;5015429;28;20030;-72
2023/07/12 12:54:56;;;;;;;2.58;1.05;;;30.70;84.80;;;;;;5017403;28;20033;-72
2023/07/12 12:57:22;;;;;;;2.05;1.10;;;30.80;84.60;;;;;;5017447;28;20018;-72
2023/07/12 12:59:47;;;;;;;1.60;1.20;;;30.90;83.20;;;;;;5017011;28;20045;-72
2023/07/12 13:02:15;;;;;;;2.00;1.10;;;30.80;85.90;;;;;;5017185;28;20033;-74